Time;durP1;ratioP1;P1;durP2;ratioP2;P2;SDS_P1;SDS_P2;PMS_P1;PMS_P2;Temp;Humidity;BMP_temperature;BMP_pressure;BME280_temperature;BME280_humidity;BME280_pressure;Samples;Min_cycle;Max_cycle;Signal;HPM_P1;HPM_P2
2024/01/09 00:01:42;0.00;0.00;0.62;0.00;0.00;0.62;3.13;1.80;;;17.30;18.50;;;;;;2251729;61;20412;-58
2024/01/09 00:04:26;0.00;0.00;0.62;0.00;0.00;0.62;2.60;1.80;;;17.30;18.50;;;;;;2253145;61;20826;-60
2024/01/09 00:07:11;0.00;0.00;0.62;0.00;0.00;0.62;2.90;1.60;;;17.30;18.50;;;;;;2253027;61;20386;-60
2024/01/09 00:09:55;0.00;0.00;0.62;0.00;0.00;0.62;2.10;1.60;;;17.30;18.50;;;;;;2252584;61;20429;-59
2024/01/09 00:12:41;0.00;0.00;0.62;0.00;0.00;0.62;2.60;1.70;;;17.30;18.50;;;;;;2253087;61;20379;-59
2024/01/09 00:15:26;0.00;0.00;0.62;0.00;0.00;0.62;3.67;1.63;;;17.30;18.50;;;;;;2252727;61;20912;-57
2024/01/09 00:18:10;0.00;0.00;0.62;0.00;0.00;0.62;2.20;1.60;;;17.30;18.50;;;;;;2253366;61;20443;-60
2024/01/09 00:20:55;0.00;0.00;0.62;0.00;0.00;0.62;2.40;1.60;;;17.30;18.50;;;;;;2252644;61;21019;-60
2024/01/09 00:23:40;0.00;0.00;0.62;0.00;0.00;0.62;3.17;1.73;;;17.20;18.50;;;;;;2252353;61;20893;-55
2024/01/09 00:26:24;0.00;0.00;0.62;0.00;0.00;0.62;3.17;2.10;;;17.20;18.50;;;;;;2253105;61;20439;-59
2024/01/09 00:29:10;0.00;0.00;0.62;0.00;0.00;0.62;4.33;2.10;;;17.20;18.50;;;;;;2252497;61;20639;-59
2024/01/09 00:31:55;0.00;0.00;0.62;0.00;0.00;0.62;2.53;1.63;;;17.20;18.50;;;;;;2252294;61;20639;-58
2024/01/09 00:34:41;0.00;0.00;0.62;0.00;0.00;0.62;2.70;1.87;;;17.20;18.50;;;;;;2252660;61;20409;-59
2024/01/09 00:37:25;0.00;0.00;0.62;0.00;0.00;0.62;3.63;2.10;;;17.20;18.50;;;;;;2252848;61;20454;-60
2024/01/09 00:40:10;0.00;0.00;0.62;0.00;0.00;0.62;3.03;1.97;;;17.20;19.00;;;;;;2253148;61;20410;-56
2024/01/09 00:42:54;0.00;0.00;0.62;0.00;0.00;0.62;4.13;2.80;;;17.20;18.50;;;;;;2252640;61;20370;-59
2024/01/09 00:45:41;0.00;0.00;0.62;0.00;0.00;0.62;3.77;2.70;;;17.20;18.50;;;;;;2252540;61;20371;-58
2024/01/09 00:48:25;0.00;0.00;0.62;0.00;0.00;0.62;4.20;2.87;;;17.20;18.50;;;;;;2253049;61;20387;-60
2024/01/09 00:51:10;0.00;0.00;0.62;0.00;0.00;0.62;5.07;3.10;;;17.20;18.50;;;;;;2252982;61;20463;-60
2024/01/09 00:53:55;0.00;0.00;0.62;0.00;0.00;0.62;3.60;2.60;;;17.20;18.50;;;;;;2252282;61;20370;-57
2024/01/09 00:56:40;0.00;0.00;0.62;0.00;0.00;0.62;4.40;2.90;;;17.20;18.50;;;;;;2252853;61;21031;-53
2024/01/09 00:59:24;0.00;0.00;0.62;0.00;0.00;0.62;2.97;2.40;;;17.20;18.50;;;;;;2253071;61;21366;-57
2024/01/09 01:02:10;0.00;0.00;0.62;0.00;0.00;0.62;4.97;3.30;;;17.20;18.50;;;;;;2252441;61;20555;-56
2024/01/09 01:04:55;0.00;0.00;0.62;0.00;0.00;0.62;3.47;2.60;;;17.20;18.50;;;;;;2252956;61;20374;-53
2024/01/09 01:07:39;0.00;0.00;0.62;0.00;0.00;0.62;2.90;2.33;;;17.20;18.50;;;;;;2252797;61;20721;-57
2024/01/09 01:10:24;0.00;0.00;0.62;0.00;0.00;0.62;3.63;2.40;;;17.20;18.50;;;;;;2252917;61;20429;-55
2024/01/09 01:13:09;0.00;0.00;0.62;0.00;0.00;0.62;3.90;2.70;;;17.20;18.50;;;;;;2252763;61;20367;-56
2024/01/09 01:15:53;0.00;0.00;0.62;0.00;0.00;0.62;3.03;2.70;;;17.20;18.50;;;;;;2252192;61;20430;-58
2024/01/09 01:18:40;0.00;0.00;0.62;0.00;0.00;0.62;3.40;2.33;;;17.20;18.50;;;;;;2253565;61;20371;-52
2024/01/09 01:21:24;0.00;0.00;0.62;0.00;0.00;0.62;4.03;2.53;;;17.10;18.40;;;;;;2253261;61;20806;-56
2024/01/09 01:24:09;0.00;0.00;0.62;0.00;0.00;0.62;3.67;2.23;;;17.20;18.50;;;;;;2253465;61;20421;-58
2024/01/09 01:26:53;0.00;0.00;0.62;0.00;0.00;0.62;4.30;2.60;;;17.20;18.50;;;;;;2253502;61;20775;-51
2024/01/09 01:29:38;0.00;0.00;0.62;0.00;0.00;0.62;3.00;2.03;;;17.10;18.40;;;;;;2253320;61;20390;-59
2024/01/09 01:32:23;0.00;0.00;0.62;0.00;0.00;0.62;3.43;2.53;;;17.10;18.40;;;;;;2253126;61;20467;-60
2024/01/09 01:35:08;0.00;0.00;0.62;0.00;0.00;0.62;3.80;2.20;;;17.10;18.40;;;;;;2253802;61;20782;-56
2024/01/09 01:37:53;0.00;0.00;0.62;0.00;0.00;0.62;3.43;2.10;;;17.10;18.40;;;;;;2253019;61;20891;-57
2024/01/09 01:40:38;0.00;0.00;0.62;0.00;0.00;0.62;3.10;2.10;;;17.10;18.40;;;;;;2253484;61;20406;-53
2024/01/09 01:43:22;0.00;0.00;0.62;0.00;0.00;0.62;3.67;2.23;;;17.10;18.40;;;;;;2253177;61;20471;-54
2024/01/09 01:46:07;0.00;0.00;0.62;0.00;0.00;0.62;2.67;2.20;;;17.10;18.40;;;;;;2253475;61;20367;-57
2024/01/09 01:48:52;0.00;0.00;0.62;0.00;0.00;0.62;3.93;2.67;;;17.10;18.40;;;;;;2253623;61;20422;-57
2024/01/09 01:51:38;0.00;0.00;0.62;0.00;0.00;0.62;4.03;2.63;;;17.10;18.40;;;;;;2253004;61;20845;-57
2024/01/09 01:54:23;0.00;0.00;0.62;0.00;0.00;0.62;4.03;2.07;;;17.10;18.40;;;;;;2253669;61;20425;-56
2024/01/09 01:57:09;0.00;0.00;0.62;0.00;0.00;0.62;2.60;1.93;;;17.10;18.40;;;;;;2253586;61;20398;-58
2024/01/09 01:59:53;0.00;0.00;0.62;0.00;0.00;0.62;3.67;2.67;;;17.10;18.50;;;;;;2252657;61;20422;-59
2024/01/09 02:02:38;0.00;0.00;0.62;0.00;0.00;0.62;3.87;2.27;;;17.10;18.40;;;;;;2253171;61;20370;-57
2024/01/09 02:05:25;0.00;0.00;0.62;0.00;0.00;0.62;3.50;2.40;;;17.10;18.50;;;;;;2253314;61;20541;-59
2024/01/09 02:08:13;0.00;0.00;0.62;0.00;0.00;0.62;3.67;2.07;;;17.10;18.40;;;;;;2253166;61;20505;-59
2024/01/09 02:10:58;0.00;0.00;0.62;0.00;0.00;0.62;3.03;2.27;;;17.00;18.40;;;;;;2252908;61;20387;-57
2024/01/09 02:13:43;0.00;0.00;0.62;0.00;0.00;0.62;2.90;2.20;;;17.10;18.40;;;;;;2253292;61;20880;-57
2024/01/09 02:16:28;0.00;0.00;0.62;0.00;0.00;0.62;3.60;2.60;;;17.10;18.50;;;;;;2253716;61;20459;-57
2024/01/09 02:19:12;0.00;0.00;0.62;0.00;0.00;0.62;3.67;2.20;;;17.10;18.40;;;;;;2253447;61;20370;-56
2024/01/09 02:21:57;0.00;0.00;0.62;0.00;0.00;0.62;2.30;2.00;;;17.10;18.40;;;;;;2252412;61;20430;-57
2024/01/09 02:24:58;0.00;0.00;0.62;0.00;0.00;0.62;3.50;2.00;;;17.00;18.40;;;;;;2593377;45;20490;-54
2024/01/09 02:27:55;0.00;0.00;0.62;0.00;0.00;0.62;2.80;1.87;;;17.10;18.50;;;;;;2253035;61;20445;-57
2024/01/09 02:30:41;0.00;0.00;0.62;0.00;0.00;0.62;3.33;2.03;;;17.10;18.40;;;;;;2252770;61;20434;-56
2024/01/09 02:33:28;0.00;0.00;0.62;0.00;0.00;0.62;3.00;2.33;;;17.00;18.40;;;;;;2252930;61;20425;-56
2024/01/09 02:36:13;0.00;0.00;0.62;0.00;0.00;0.62;4.03;2.10;;;17.00;18.40;;;;;;2253216;61;20806;-58
2024/01/09 02:38:57;0.00;0.00;0.62;0.00;0.00;0.62;3.20;2.00;;;17.00;18.40;;;;;;2253417;61;20406;-54
2024/01/09 02:41:42;0.00;0.00;0.62;0.00;0.00;0.62;3.73;2.37;;;17.00;18.40;;;;;;2252986;61;20385;-57
2024/01/09 02:44:26;0.00;0.00;0.62;0.00;0.00;0.62;3.27;2.20;;;17.00;18.40;;;;;;2253050;61;20834;-55
2024/01/09 02:47:13;0.00;0.00;0.62;0.00;0.00;0.62;2.97;2.40;;;17.00;18.40;;;;;;2254063;61;20525;-59
2024/01/09 02:49:57;0.00;0.00;0.62;0.00;0.00;0.62;3.17;2.30;;;17.00;18.30;;;;;;2252928;61;20441;-57
2024/01/09 02:52:42;0.00;0.00;0.62;0.00;0.00;0.62;3.10;2.20;;;17.00;18.30;;;;;;2252834;61;20858;-60
2024/01/09 02:55:27;0.00;0.00;0.62;0.00;0.00;0.62;3.67;2.57;;;17.00;18.30;;;;;;2253326;61;21019;-57
2024/01/09 02:58:11;0.00;0.00;0.62;0.00;0.00;0.62;4.13;2.40;;;17.00;18.40;;;;;;2253339;61;20451;-59
2024/01/09 03:00:56;0.00;0.00;0.62;0.00;0.00;0.62;3.30;2.20;;;17.00;18.30;;;;;;2253158;61;20483;-56
2024/01/09 03:03:42;0.00;0.00;0.62;0.00;0.00;0.62;3.80;2.57;;;17.00;18.30;;;;;;2252982;61;20441;-57
2024/01/09 03:06:26;0.00;0.00;0.62;0.00;0.00;0.62;3.70;2.50;;;17.00;18.30;;;;;;2253067;61;20687;-55
2024/01/09 03:09:11;0.00;0.00;0.62;0.00;0.00;0.62;3.50;2.17;;;17.00;18.30;;;;;;2253531;61;20394;-57
2024/01/09 03:14:35;0.00;0.00;0.62;0.00;0.00;0.62;3.33;2.33;;;17.00;18.30;;;;;;2255441;61;20366;-61
2024/01/09 03:17:19;0.00;0.00;0.62;0.00;0.00;0.62;3.20;2.03;;;17.00;18.30;;;;;;2257478;61;21022;-55
2024/01/09 03:20:09;0.00;0.00;0.62;0.00;0.00;0.62;3.30;2.13;;;17.00;18.30;;;;;;2256813;61;20357;-57
2024/01/09 03:22:53;0.00;0.00;0.62;0.00;0.00;0.62;2.77;1.90;;;16.90;18.30;;;;;;2253032;61;20903;-59
2024/01/09 03:25:38;0.00;0.00;0.62;0.00;0.00;0.62;3.00;2.33;;;16.90;18.30;;;;;;2253266;61;20972;-56
2024/01/09 03:28:22;0.00;0.00;0.62;0.00;0.00;0.62;2.80;1.83;;;16.90;18.30;;;;;;2252733;61;20395;-57
2024/01/09 03:31:07;0.00;0.00;0.62;0.00;0.00;0.62;2.80;2.30;;;16.90;18.20;;;;;;2253259;61;20462;-58
2024/01/09 03:33:51;0.00;0.00;0.62;0.00;0.00;0.62;2.60;2.00;;;16.90;18.30;;;;;;2252925;61;20421;-56
2024/01/09 03:36:38;0.00;0.00;0.62;0.00;0.00;0.62;3.00;1.97;;;16.90;18.30;;;;;;2253261;61;20371;-58
2024/01/09 03:39:23;0.00;0.00;0.62;0.00;0.00;0.62;3.00;1.80;;;16.90;18.30;;;;;;2253395;61;20451;-55
2024/01/09 03:42:07;0.00;0.00;0.62;0.00;0.00;0.62;3.47;2.20;;;16.90;18.30;;;;;;2252551;61;20877;-57
2024/01/09 03:44:52;0.00;0.00;0.62;0.00;0.00;0.62;2.83;1.90;;;16.90;18.30;;;;;;2253072;61;20417;-56
2024/01/09 03:47:36;0.00;0.00;0.62;0.00;0.00;0.62;2.60;1.70;;;16.90;18.30;;;;;;2255717;61;20806;-59
2024/01/09 03:50:21;0.00;0.00;0.62;0.00;0.00;0.62;2.70;2.20;;;16.90;18.30;;;;;;2252870;61;20390;-59
2024/01/09 03:53:08;0.00;0.00;0.62;0.00;0.00;0.62;2.80;1.97;;;16.90;18.30;;;;;;2252957;61;20459;-59
2024/01/09 03:55:52;0.00;0.00;0.62;0.00;0.00;0.62;3.47;2.30;;;16.90;18.30;;;;;;2253090;61;20363;-56
2024/01/09 03:58:37;0.00;0.00;0.62;0.00;0.00;0.62;2.30;1.60;;;16.90;18.30;;;;;;2252401;61;20362;-57
2024/01/09 04:01:22;0.00;0.00;0.62;0.00;0.00;0.62;2.90;2.07;;;16.90;18.30;;;;;;2252265;61;20903;-54
2024/01/09 04:04:06;0.00;0.00;0.62;0.00;0.00;0.62;2.83;1.87;;;16.80;18.40;;;;;;2252127;61;20343;-57
2024/01/09 04:06:51;0.00;0.00;0.62;0.00;0.00;0.62;2.80;1.90;;;16.90;18.30;;;;;;2252206;61;20366;-56
2024/01/09 04:09:37;0.00;0.00;0.62;0.00;0.00;0.62;2.50;1.67;;;16.90;18.30;;;;;;2252385;61;20712;-57
2024/01/09 04:12:22;0.00;0.00;0.62;0.00;0.00;0.62;3.23;1.77;;;16.90;18.30;;;;;;2251652;61;20390;-57
2024/01/09 04:15:08;0.00;0.00;0.62;0.00;0.00;0.62;2.23;1.53;;;16.90;18.30;;;;;;2250752;61;20380;-58
2024/01/09 04:17:53;0.00;0.00;0.62;0.00;0.00;0.62;3.13;2.00;;;16.90;18.30;;;;;;2248497;61;20484;-53
2024/01/09 04:20:37;0.00;0.00;0.62;0.00;0.00;0.62;2.80;1.90;;;16.90;18.30;;;;;;2248339;61;21110;-55
2024/01/09 04:23:23;0.00;0.00;0.62;0.00;0.00;0.62;2.60;2.17;;;16.80;18.20;;;;;;2247513;61;20383;-56
2024/01/09 04:26:09;0.00;0.00;0.62;0.00;0.00;0.62;2.90;1.97;;;16.80;18.20;;;;;;2247946;61;20394;-55
2024/01/09 04:28:53;0.00;0.00;0.62;0.00;0.00;0.62;3.20;2.10;;;16.80;18.20;;;;;;2247926;61;20932;-57
2024/01/09 04:31:38;0.00;0.00;0.62;0.00;0.00;0.62;2.33;1.60;;;16.80;18.20;;;;;;2248112;61;20927;-57
2024/01/09 04:34:22;0.00;0.00;0.62;0.00;0.00;0.62;2.83;2.07;;;16.80;18.20;;;;;;2248177;61;20899;-57
2024/01/09 04:37:07;0.00;0.00;0.62;0.00;0.00;0.62;3.10;2.00;;;16.80;18.20;;;;;;2248035;61;20479;-55
2024/01/09 04:39:51;0.00;0.00;0.62;0.00;0.00;0.62;3.00;1.80;;;16.80;18.20;;;;;;2248416;61;20347;-57
2024/01/09 04:42:38;0.00;0.00;0.62;0.00;0.00;0.62;3.43;2.30;;;16.80;18.20;;;;;;2247472;61;20371;-59
2024/01/09 04:45:22;0.00;0.00;0.62;0.00;0.00;0.62;2.70;1.70;;;16.80;18.20;;;;;;2248187;61;20430;-54
2024/01/09 04:48:08;0.00;0.00;0.62;0.00;0.00;0.62;3.40;2.13;;;16.80;18.20;;;;;;2248250;61;20427;-58
2024/01/09 04:50:53;0.00;0.00;0.62;0.00;0.00;0.62;2.70;2.10;;;16.80;18.70;;;;;;2247783;61;20383;-59
2024/01/09 04:53:37;0.00;0.00;0.62;0.00;0.00;0.62;2.43;1.80;;;16.80;18.20;;;;;;2248506;61;20374;-55
2024/01/09 04:56:22;0.00;0.00;0.62;0.00;0.00;0.62;3.10;1.93;;;16.80;18.20;;;;;;2248901;61;20404;-54
2024/01/09 04:59:08;0.00;0.00;0.62;0.00;0.00;0.62;4.30;2.30;;;16.80;18.20;;;;;;2249066;61;20415;-56
2024/01/09 05:01:53;0.00;0.00;0.62;0.00;0.00;0.62;3.07;1.93;;;16.80;18.20;;;;;;2248174;61;20872;-56
2024/01/09 05:04:37;0.00;0.00;0.62;0.00;0.00;0.62;2.57;1.80;;;16.80;18.20;;;;;;2248746;61;20419;-57
2024/01/09 05:07:22;0.00;0.00;0.62;0.00;0.00;0.62;2.40;1.60;;;16.80;18.20;;;;;;2248995;61;20396;-57
2024/01/09 05:10:08;0.00;0.00;0.62;0.00;0.00;0.62;2.50;1.67;;;16.70;18.20;;;;;;2248234;61;20422;-57
2024/01/09 05:12:52;0.00;0.00;0.62;0.00;0.00;0.62;3.13;2.13;;;16.80;18.20;;;;;;2248343;61;20955;-57
2024/01/09 05:15:38;0.00;0.00;0.62;0.00;0.00;0.62;3.03;2.00;;;16.70;18.20;;;;;;2251390;61;20409;-58
2024/01/09 05:18:22;0.00;0.00;0.62;0.00;0.00;0.62;2.70;1.80;;;16.70;18.20;;;;;;2253090;61;20401;-57
2024/01/09 05:21:07;0.00;0.00;0.62;0.00;0.00;0.62;2.70;2.00;;;16.70;18.10;;;;;;2252615;61;20382;-58
2024/01/09 05:23:52;0.00;0.00;0.62;0.00;0.00;0.62;2.17;1.70;;;16.70;18.10;;;;;;2252587;61;20382;-58
2024/01/09 05:26:36;0.00;0.00;0.62;0.00;0.00;0.62;3.07;2.10;;;16.70;18.20;;;;;;2252677;61;20363;-58
2024/01/09 05:29:21;0.00;0.00;0.62;0.00;0.00;0.62;3.30;2.10;;;16.70;18.20;;;;;;2252721;61;20438;-57
2024/01/09 05:32:07;0.00;0.00;0.62;0.00;0.00;0.62;2.80;1.80;;;16.70;18.10;;;;;;2252488;61;20401;-57
2024/01/09 05:34:52;0.00;0.00;0.62;0.00;0.00;0.62;2.63;1.80;;;16.70;18.20;;;;;;2252580;61;20359;-56
2024/01/09 05:37:37;0.00;0.00;0.62;0.00;0.00;0.62;2.70;1.83;;;16.70;18.20;;;;;;2253048;61;21135;-57
2024/01/09 05:40:21;0.00;0.00;0.62;0.00;0.00;0.62;2.40;1.80;;;16.70;18.20;;;;;;2252774;61;20491;-58
2024/01/09 05:43:06;0.00;0.00;0.62;0.00;0.00;0.62;2.97;1.83;;;16.70;18.20;;;;;;2252076;61;20362;-59
2024/01/09 05:45:50;0.00;0.00;0.62;0.00;0.00;0.62;2.77;1.97;;;16.70;18.20;;;;;;2254995;61;20783;-57
2024/01/09 05:48:36;0.00;0.00;0.62;0.00;0.00;0.62;2.60;1.93;;;16.70;18.20;;;;;;2252492;61;20992;-58
2024/01/09 05:51:21;0.00;0.00;0.62;0.00;0.00;0.62;3.07;1.90;;;16.70;18.20;;;;;;2252959;61;20387;-57
2024/01/09 05:54:06;0.00;0.00;0.62;0.00;0.00;0.62;2.33;1.60;;;16.70;18.70;;;;;;2252921;61;20434;-55
2024/01/09 05:56:50;0.00;0.00;0.62;0.00;0.00;0.62;2.57;1.90;;;16.70;18.20;;;;;;2252350;61;20379;-57
2024/01/09 05:59:36;0.00;0.00;0.62;0.00;0.00;0.62;2.60;1.90;;;16.70;18.20;;;;;;2252568;61;20432;-58
2024/01/09 06:02:21;0.00;0.00;0.62;0.00;0.00;0.62;3.00;2.33;;;16.70;18.20;;;;;;2252420;61;20386;-57
2024/01/09 06:05:08;0.00;0.00;0.62;0.00;0.00;0.62;4.13;2.03;;;16.70;18.20;;;;;;2252417;61;20878;-58
2024/01/09 06:07:52;0.00;0.00;0.62;0.00;0.00;0.62;2.57;1.63;;;16.70;18.20;;;;;;2252596;61;20494;-57
2024/01/09 06:10:37;0.00;0.00;0.62;0.00;0.00;0.62;2.80;1.90;;;16.70;18.20;;;;;;2252296;61;20402;-58
2024/01/09 06:13:21;0.00;0.00;0.62;0.00;0.00;0.62;2.97;2.13;;;16.70;18.20;;;;;;2252386;61;20501;-59
2024/01/09 06:16:07;0.00;0.00;0.62;0.00;0.00;0.62;3.30;2.07;;;16.60;18.10;;;;;;2249431;61;20419;-57
2024/01/09 06:18:52;0.00;0.00;0.62;0.00;0.00;0.62;2.80;1.90;;;16.60;18.10;;;;;;2248191;61;20448;-55
2024/01/09 06:21:39;0.00;0.00;0.62;0.00;0.00;0.62;3.60;1.93;;;16.60;18.10;;;;;;2248611;61;21039;-54
2024/01/09 06:24:23;0.00;0.00;0.62;0.00;0.00;0.62;2.33;1.87;;;16.60;18.10;;;;;;2248865;61;20395;-55
2024/01/09 06:27:08;0.00;0.00;0.62;0.00;0.00;0.62;2.80;1.77;;;16.60;18.10;;;;;;2248375;61;20816;-62
2024/01/09 06:29:53;0.00;0.00;0.62;0.00;0.00;0.62;2.67;1.90;;;16.60;18.20;;;;;;2249006;61;20508;-57
2024/01/09 06:32:37;0.00;0.00;0.62;0.00;0.00;0.62;2.60;1.93;;;16.60;18.10;;;;;;2248586;61;20423;-55
2024/01/09 06:35:22;0.00;0.00;0.62;0.00;0.00;0.62;2.97;2.20;;;16.60;18.10;;;;;;2248516;61;20371;-56
2024/01/09 06:38:08;0.00;0.00;0.62;0.00;0.00;0.62;3.30;2.27;;;16.60;18.10;;;;;;2248687;61;20371;-56
2024/01/09 06:40:52;0.00;0.00;0.62;0.00;0.00;0.62;3.30;1.97;;;16.60;18.10;;;;;;2248423;61;20396;-57
2024/01/09 06:43:37;0.00;0.00;0.62;0.00;0.00;0.62;3.30;2.00;;;16.60;18.20;;;;;;2248070;61;20387;-56
2024/01/09 06:46:21;0.00;0.00;0.62;0.00;0.00;0.62;2.33;1.63;;;16.60;18.10;;;;;;2248619;61;20439;-58
2024/01/09 06:49:06;0.00;0.00;0.62;0.00;0.00;0.62;3.70;2.20;;;16.60;18.10;;;;;;2248326;61;20896;-59
2024/01/09 06:51:53;0.00;0.00;0.62;0.00;0.00;0.62;2.70;2.00;;;16.60;18.20;;;;;;2248038;61;20382;-58
2024/01/09 06:54:40;0.00;0.00;0.62;0.00;0.00;0.62;2.40;1.83;;;16.60;18.10;;;;;;2248626;61;20388;-57
2024/01/09 06:57:27;0.00;0.00;0.62;0.00;0.00;0.62;2.63;1.80;;;16.60;18.10;;;;;;2248390;61;20376;-57
2024/01/09 07:00:13;0.00;0.00;0.62;0.00;0.00;0.62;2.57;1.90;;;16.60;18.20;;;;;;2248652;61;20919;-54
2024/01/09 07:02:58;0.00;0.00;0.62;0.00;0.00;0.62;2.33;1.70;;;16.60;18.10;;;;;;2248030;61;20371;-55
2024/01/09 07:05:43;0.00;0.00;0.62;0.00;0.00;0.62;3.47;2.43;;;16.60;18.20;;;;;;2248739;61;20387;-55
2024/01/09 07:08:28;0.00;0.00;0.62;0.00;0.00;0.62;2.80;1.90;;;16.60;18.20;;;;;;2248594;61;20347;-57
2024/01/09 07:11:14;0.00;0.00;0.62;0.00;0.00;0.62;2.57;2.00;;;16.60;18.20;;;;;;2248255;61;20426;-55
2024/01/09 07:13:58;0.00;0.00;0.62;0.00;0.00;0.62;2.50;1.73;;;16.50;18.10;;;;;;2248299;61;20395;-55
2024/01/09 07:16:43;0.00;0.00;0.62;0.00;0.00;0.62;3.43;2.57;;;16.50;18.10;;;;;;2492796;53;20400;-58
2024/01/09 07:19:27;0.00;0.00;0.62;0.00;0.00;0.62;3.47;2.43;;;16.50;18.10;;;;;;2244327;61;20365;-57
2024/01/09 07:22:12;0.00;0.00;0.62;0.00;0.00;0.62;3.23;2.27;;;16.50;18.10;;;;;;2244106;61;20408;-58
2024/01/09 07:24:56;0.00;0.00;0.62;0.00;0.00;0.62;2.50;1.80;;;16.50;18.10;;;;;;2244239;61;20901;-59
2024/01/09 07:27:42;0.00;0.00;0.62;0.00;0.00;0.62;3.37;2.20;;;16.50;18.10;;;;;;2244537;61;20380;-57
2024/01/09 07:30:27;0.00;0.00;0.62;0.00;0.00;0.62;3.53;2.30;;;16.50;18.10;;;;;;2244560;61;20392;-57
2024/01/09 07:33:11;0.00;0.00;0.62;0.00;0.00;0.62;3.63;2.60;;;16.50;18.10;;;;;;2243849;61;20420;-57
2024/01/09 07:35:56;0.00;0.00;0.62;0.00;0.00;0.62;3.37;2.23;;;16.50;18.10;;;;;;2244674;61;20429;-59
2024/01/09 07:38:40;0.00;0.00;0.62;0.00;0.00;0.62;2.97;2.10;;;16.50;18.10;;;;;;2244405;61;20369;-57
2024/01/09 07:41:25;0.00;0.00;0.62;0.00;0.00;0.62;3.80;2.57;;;16.50;18.10;;;;;;2244326;61;20833;-59
2024/01/09 07:44:11;0.00;0.00;0.62;0.00;0.00;0.62;3.50;2.50;;;16.50;18.10;;;;;;2244600;61;20496;-57
2024/01/09 07:46:56;0.00;0.00;0.62;0.00;0.00;0.62;3.73;2.47;;;16.50;18.20;;;;;;2244280;61;20373;-59
2024/01/09 07:49:40;0.00;0.00;0.62;0.00;0.00;0.62;4.80;3.20;;;16.50;18.10;;;;;;2244473;61;20557;-57
2024/01/09 07:52:25;0.00;0.00;0.62;0.00;0.00;0.62;3.43;2.30;;;16.50;18.10;;;;;;2244127;61;20391;-58
2024/01/09 07:55:10;0.00;0.00;0.62;0.00;0.00;0.62;4.13;2.67;;;16.50;18.10;;;;;;2244460;61;20372;-59
2024/01/09 07:57:54;0.00;0.00;0.62;0.00;0.00;0.62;3.43;2.40;;;16.50;18.10;;;;;;2244379;61;20782;-56
2024/01/09 08:00:40;0.00;0.00;0.62;0.00;0.00;0.62;3.93;3.00;;;16.50;18.10;;;;;;2244520;61;20384;-56
2024/01/09 08:03:25;0.00;0.00;0.62;0.00;0.00;0.62;3.40;2.63;;;16.50;18.10;;;;;;2243477;61;20420;-57
2024/01/09 08:06:13;0.00;0.00;0.62;0.00;0.00;0.62;5.40;2.60;;;16.50;18.10;;;;;;2244412;61;20441;-59
2024/01/09 08:08:58;0.00;0.00;0.62;0.00;0.00;0.62;4.57;2.87;;;16.50;18.10;;;;;;2244384;61;20964;-59
2024/01/09 08:11:43;0.00;0.00;0.62;0.00;0.00;0.62;3.50;2.67;;;16.50;18.10;;;;;;2244047;61;20428;-57
2024/01/09 08:14:28;0.00;0.00;0.62;0.00;0.00;0.62;4.53;3.40;;;16.50;18.70;;;;;;2245076;61;20411;-57
2024/01/09 08:17:14;0.00;0.00;0.62;0.00;0.00;0.62;3.90;2.80;;;16.50;18.10;;;;;;2251760;61;20394;-59
2024/01/09 08:19:58;0.00;0.00;0.62;0.00;0.00;0.62;5.00;2.80;;;16.40;18.10;;;;;;2252349;61;20954;-55
2024/01/09 08:22:43;0.00;0.00;0.62;0.00;0.00;0.62;3.53;2.83;;;16.40;18.10;;;;;;2252076;61;20911;-59
2024/01/09 08:25:28;0.00;0.00;0.62;0.00;0.00;0.62;3.57;2.70;;;16.50;18.20;;;;;;2251687;61;20368;-58
2024/01/09 08:28:13;0.00;0.00;0.62;0.00;0.00;0.62;5.90;3.90;;;16.50;18.20;;;;;;2252186;61;20391;-58
2024/01/09 08:30:57;0.00;0.00;0.62;0.00;0.00;0.62;5.20;3.80;;;16.40;18.10;;;;;;2249947;61;20683;-57
2024/01/09 08:33:43;0.00;0.00;0.62;0.00;0.00;0.62;5.53;4.43;;;16.40;18.10;;;;;;2248152;61;20411;-59
2024/01/09 08:36:28;0.00;0.00;0.62;0.00;0.00;0.62;4.90;3.77;;;16.40;18.10;;;;;;2248191;61;20407;-57
2024/01/09 08:39:15;0.00;0.00;0.62;0.00;0.00;0.62;6.10;4.07;;;16.40;18.10;;;;;;2248143;61;20403;-58
2024/01/09 08:42:00;0.00;0.00;0.62;0.00;0.00;0.62;6.23;4.27;;;16.40;18.10;;;;;;2247766;61;20920;-53
2024/01/09 08:44:44;0.00;0.00;0.62;0.00;0.00;0.62;5.70;3.97;;;16.40;18.20;;;;;;2248416;61;20939;-59
2024/01/09 08:47:29;0.00;0.00;0.62;0.00;0.00;0.62;5.80;4.70;;;16.40;18.10;;;;;;2247839;61;20903;-54
2024/01/09 08:50:15;0.00;0.00;0.62;0.00;0.00;0.62;6.43;5.07;;;16.40;18.10;;;;;;2248150;61;20466;-59
2024/01/09 08:53:00;0.00;0.00;0.62;0.00;0.00;0.62;6.80;5.10;;;16.40;18.10;;;;;;2247904;61;20852;-57
2024/01/09 08:55:44;0.00;0.00;0.62;0.00;0.00;0.62;7.70;6.33;;;16.40;18.00;;;;;;2248181;61;20782;-56
2024/01/09 08:58:29;0.00;0.00;0.62;0.00;0.00;0.62;8.47;6.83;;;16.40;18.00;;;;;;2248176;61;20784;-57
2024/01/09 09:01:18;0.00;0.00;0.62;0.00;0.00;0.62;8.30;6.87;;;16.40;18.00;;;;;;2248020;61;20379;-56
2024/01/09 09:04:03;0.00;0.00;0.62;0.00;0.00;0.62;8.93;6.37;;;16.40;18.50;;;;;;2248236;61;20363;-57
2024/01/09 09:06:49;0.00;0.00;0.62;0.00;0.00;0.62;9.97;7.07;;;16.50;18.00;;;;;;2248256;61;20439;-56
2024/01/09 09:09:35;0.00;0.00;0.62;0.00;0.00;0.62;10.20;6.77;;;16.50;18.00;;;;;;2247984;61;20388;-59
2024/01/09 09:12:20;0.00;0.00;0.62;0.00;0.00;0.62;7.67;6.17;;;16.50;18.00;;;;;;2247927;61;20472;-58
2024/01/09 09:15:05;0.00;0.00;0.62;0.00;0.00;0.62;9.23;6.37;;;16.50;18.00;;;;;;2248050;61;20531;-59
2024/01/09 09:17:50;0.00;0.00;0.62;0.00;0.00;0.62;7.83;6.17;;;16.50;18.00;;;;;;2247912;61;20414;-55
2024/01/09 09:20:34;0.00;0.00;0.62;0.00;0.00;0.62;7.70;5.93;;;16.50;18.00;;;;;;2248035;61;20380;-55
2024/01/09 09:23:21;0.00;0.00;0.62;0.00;0.00;0.62;8.13;5.53;;;16.50;18.00;;;;;;2246982;61;20414;-57
2024/01/09 09:26:05;0.00;0.00;0.62;0.00;0.00;0.62;7.13;6.17;;;16.50;18.00;;;;;;2248160;61;20450;-57
2024/01/09 09:28:50;0.00;0.00;0.62;0.00;0.00;0.62;10.43;6.13;;;16.50;18.00;;;;;;2248234;61;20366;-58
2024/01/09 09:31:35;0.00;0.00;0.62;0.00;0.00;0.62;9.10;6.53;;;16.50;18.00;;;;;;2247678;61;20796;-59
2024/01/09 09:34:20;0.00;0.00;0.62;0.00;0.00;0.62;9.17;6.80;;;16.50;18.00;;;;;;2248129;61;20944;-59
2024/01/09 09:37:04;0.00;0.00;0.62;0.00;0.00;0.62;13.47;9.83;;;16.50;18.00;;;;;;2248092;61;20372;-56
2024/01/09 09:39:50;0.00;0.00;0.62;0.00;0.00;0.62;10.80;8.47;;;16.60;18.10;;;;;;2248110;61;20363;-56
2024/01/09 09:42:36;0.00;0.00;0.62;0.00;0.00;0.62;10.40;7.83;;;16.60;18.10;;;;;;2248303;61;20387;-54
2024/01/09 09:45:22;0.00;0.00;0.62;0.00;0.00;0.62;12.93;9.40;;;16.60;18.10;;;;;;2248775;61;20363;-58
2024/01/09 09:48:08;0.00;0.00;0.62;0.00;0.00;0.62;12.70;7.90;;;16.60;18.10;;;;;;2248846;61;20372;-57
2024/01/09 09:50:55;0.00;0.00;0.62;0.00;0.00;0.62;9.90;8.40;;;16.60;18.10;;;;;;2250985;61;20435;-56
2024/01/09 09:53:39;0.00;0.00;0.62;0.00;0.00;0.62;7.80;6.90;;;16.60;18.10;;;;;;2248248;61;20403;-57
2024/01/09 09:56:28;0.00;0.00;0.62;0.00;0.00;0.62;9.43;7.97;;;16.60;18.10;;;;;;2248966;61;20375;-53
2024/01/09 09:59:14;0.00;0.00;0.62;0.00;0.00;0.62;9.67;6.47;;;16.70;18.20;;;;;;2248721;61;20422;-57
2024/01/09 10:02:06;0.00;0.00;0.62;0.00;0.00;0.62;9.33;6.57;;;16.70;18.20;;;;;;2248331;61;20391;-53
2024/01/09 10:04:53;0.00;0.00;0.62;0.00;0.00;0.62;10.90;6.03;;;16.60;18.10;;;;;;2248730;61;20454;-61
2024/01/09 10:07:39;0.00;0.00;0.62;0.00;0.00;0.62;8.37;5.83;;;16.70;18.20;;;;;;2250636;61;20415;-58
2024/01/09 10:10:24;0.00;0.00;0.62;0.00;0.00;0.62;9.70;6.97;;;16.70;18.20;;;;;;2248748;61;20395;-61
2024/01/09 10:13:10;0.00;0.00;0.62;0.00;0.00;0.62;8.20;6.20;;;16.70;18.20;;;;;;2248331;61;20419;-56
2024/01/09 10:15:59;0.00;0.00;0.62;0.00;0.00;0.62;7.63;5.93;;;16.70;18.20;;;;;;2251353;61;20778;-55
2024/01/09 10:18:45;0.00;0.00;0.62;0.00;0.00;0.62;6.97;5.77;;;16.70;18.20;;;;;;2255177;61;20449;-54
2024/01/09 10:21:30;0.00;0.00;0.62;0.00;0.00;0.62;7.43;5.77;;;16.70;18.20;;;;;;2252706;61;20932;-55
2024/01/09 10:24:15;0.00;0.00;0.62;0.00;0.00;0.62;7.60;5.67;;;16.80;18.30;;;;;;2252456;61;20382;-58
2024/01/09 10:27:00;0.00;0.00;0.62;0.00;0.00;0.62;7.80;5.63;;;16.80;18.30;;;;;;2252829;61;20409;-57
2024/01/09 10:29:46;0.00;0.00;0.62;0.00;0.00;0.62;6.07;4.53;;;16.80;18.30;;;;;;2252493;61;20382;-58
2024/01/09 10:32:33;0.00;0.00;0.62;0.00;0.00;0.62;8.13;5.50;;;16.80;18.30;;;;;;2252802;61;20387;-58
2024/01/09 10:35:17;0.00;0.00;0.62;0.00;0.00;0.62;6.60;5.10;;;16.80;18.30;;;;;;2252756;61;20354;-58
2024/01/09 10:38:02;0.00;0.00;0.62;0.00;0.00;0.62;6.30;5.20;;;16.80;18.30;;;;;;2252015;61;20483;-55
2024/01/09 10:40:46;0.00;0.00;0.62;0.00;0.00;0.62;7.17;5.87;;;16.90;18.90;;;;;;2252596;61;20382;-55
2024/01/09 10:43:32;0.00;0.00;0.62;0.00;0.00;0.62;8.70;6.00;;;16.80;18.30;;;;;;2252242;61;20423;-58
2024/01/09 10:46:23;0.00;0.00;0.62;0.00;0.00;0.62;10.53;6.87;;;16.90;18.90;;;;;;2252385;61;20895;-56
2024/01/09 10:49:08;0.00;0.00;0.62;0.00;0.00;0.62;9.00;6.93;;;16.90;18.40;;;;;;2252484;61;20438;-52
2024/01/09 10:51:55;0.00;0.00;0.62;0.00;0.00;0.62;9.10;7.20;;;16.90;18.40;;;;;;2251975;61;20427;-53
2024/01/09 10:54:41;0.00;0.00;0.62;0.00;0.00;0.62;8.83;7.37;;;16.90;18.40;;;;;;2252589;61;20359;-56